Bryant, Alabama
Current Conditions -  °F | °C
As of 9:53 AM on Wednesday 22 Oct 2014 (Local Time) from KCHA Reporting Station
Scattered Clouds Scattered Clouds  
Wind Chill: 56°   Ceiling: Unl
Heat Index: 56°   Visibility: 10mi
Dew Point: 41°   Wind: 14mph
Humidity: 57%   Direction: 10°N
Pressure: 30.21"   Gusts: NA
Location:  34.94°N, 85.63°W
Report Text: KCHA 221453Z 01012KT 10SM SCT030 13/05 A3021 RMK AO2 SLP227 T01330050 51014
Loading
Personal Weather Stations






























Interactive Weather Map
Tropical Storm Tracking
New forecast layout! Learn more

10-Day Weather Forecast

Advertisements
Track Severe Weather on mobile